ADDS METAR Data INFO
IDs: Format: Raw Decoded Include TAF

Data at: 0317 UTC 20 Jul 2018

KPTV 200256Z AUTO 28004KT 10SM CLR 36/17 A2977 RMK AO2 SLP084 T03560167 55002
KPTV 200156Z AUTO 31009KT 10SM CLR 38/16 A2976 RMK AO2 SLP080 T03830156
KPTV 200056Z AUTO 31009KT 10SM CLR 40/14 A2976 RMK AO2 SLP080 T04000144
KPTV 192356Z AUTO 33008KT 10SM CLR 41/08 A2978 RMK AO2 SLP085 T04060083 10411 20339 58024
KPTV 192256Z AUTO 31010KT 10SM CLR 41/16 A2980 RMK AO2 SLP093 T04060161
KPTV 192156Z AUTO 33006KT 10SM CLR 41/09 A2983 RMK AO2 SLP102 T04060089
KPTV 192056Z AUTO 34006KT 10SM CLR 39/16 A2985 RMK AO2 SLP110 T03890156 58020
KPTV 191956Z AUTO VRB06KT 10SM CLR 37/15 A2988 RMK AO2 SLP118 T03720150
KPTV 191856Z AUTO 29006KT 10SM CLR 36/17 A2990 RMK AO2 SLP125 T03610167
KPTV 191756Z AUTO 28005KT 10SM CLR 34/17 A2991 RMK AO2 SLP131 T03390167 10339 20217 58000
KPTV 191656Z AUTO VRB03KT 10SM CLR 32/14 A2991 RMK AO2 SLP132 T03170144
KPTV 191556Z AUTO 19005KT 10SM CLR 30/11 A2992 RMK AO2 SLP133 T03000111
KPTV 191456Z AUTO 17005KT 10SM CLR 28/11 A2991 RMK AO2 SLP131 T02780106 51011
KPTV 191356Z AUTO 15005KT 10SM CLR 24/13 A2991 RMK AO2 SLP130 T02390128
KPTV 191256Z AUTO 14004KT 10SM CLR 23/13 A2989 RMK AO2 SLP124 T02330133
KPTV 191156Z AUTO 13004KT 10SM CLR 24/12 A2988 RMK AO2 SLP120 T02390122 10278 20233 55001
KPTV 191056Z AUTO 15005KT 10SM CLR 24/12 A2988 RMK AO2 SLP119 T02440117
KPTV 190956Z AUTO 16004KT 10SM CLR 25/13 A2988 RMK AO2 SLP120 T02500133
KPTV 190856Z AUTO 17003KT 10SM CLR 25/14 A2988 RMK AO2 SLP121 T02500139 58002
KPTV 190756Z AUTO 09005KT 10SM CLR 27/14 A2989 RMK AO2 SLP122 T02720144
KPTV 190656Z AUTO 11006KT 10SM CLR 27/16 A2989 RMK AO2 SLP124 T02720156 403780206
KPTV 190556Z AUTO 11005KT 10SM CLR 28/17 A2989 RMK AO2 SLP124 T02830172 10378 20283 53014
KPTV 190456Z AUTO 00000KT 10SM CLR 30/18 A2988 RMK AO2 SLP120 T03000178
KPTV 190356Z AUTO 00000KT 10SM CLR 31/19 A2986 RMK AO2 SLP113 T03110189
KPTV 190256Z AUTO 00000KT 10SM CLR 34/17 A2985 RMK AO2 SLP109 T03440167 56007
KPTV 190156Z AUTO 32004KT 10SM CLR 37/14 A2985 RMK AO2 SLP110 T03720139
KPTV 190056Z AUTO 31004KT 10SM CLR 37/14 A2985 RMK AO2 SLP111 T03720144
KPTV 182356Z AUTO 32006KT 10SM CLR 37/14 A2987 RMK AO2 SLP117 T03720144 10378 20317 57018
KPTV 182256Z AUTO 31005KT 10SM CLR 37/12 A2989 RMK AO2 SLP123 T03720117
KPTV 182156Z AUTO 23003KT 10SM CLR 36/11 A2991 RMK AO2 SLP130 T03610106
KPTV 182056Z AUTO 27006KT 10SM CLR 36/11 A2992 RMK AO2 SLP135 T03560106 58012
KPTV 181956Z AUTO 27006KT 10SM CLR 35/09 A2994 RMK AO2 SLP140 T03500089
KPTV 181856Z AUTO 25005KT 10SM CLR 33/09 A2995 RMK AO2 SLP146 T03330094
KPTV 181756Z AUTO VRB03KT 10SM CLR 32/13 A2996 RMK AO2 SLP147 T03170128 10317 20206 51003
KPTV 181656Z AUTO 26005KT 10SM FEW002 31/13 A2995 RMK AO2 SLP145 T03060133
KPTV 181556Z AUTO 21003KT 10SM 29/13 A2996 RMK AO2 SLP147 T02940128 $